sensor_id;sensor_type;location;lat;lon;timestamp;P1;durP1;ratioP1;P2;durP2;ratioP2
80201;SDS011;69521;54.454;9.928;2024-03-08T00:01:45;8.75;;;4.28;;
80201;SDS011;69521;54.454;9.928;2024-03-08T00:04:11;9.77;;;4.28;;
80201;SDS011;69521;54.454;9.928;2024-03-08T00:06:36;9.83;;;4.30;;
80201;SDS011;69521;54.454;9.928;2024-03-08T00:09:02;10.93;;;4.73;;
80201;SDS011;69521;54.454;9.928;2024-03-08T00:11:27;13.93;;;3.77;;
80201;SDS011;69521;54.454;9.928;2024-03-08T00:13:52;11.77;;;5.18;;
80201;SDS011;69521;54.454;9.928;2024-03-08T00:16:18;12.23;;;4.72;;
80201;SDS011;69521;54.454;9.928;2024-03-08T00:18:44;9.88;;;4.80;;
80201;SDS011;69521;54.454;9.928;2024-03-08T00:21:10;18.35;;;5.03;;
80201;SDS011;69521;54.454;9.928;2024-03-08T00:23:37;10.95;;;4.82;;
80201;SDS011;69521;54.454;9.928;2024-03-08T00:26:02;12.05;;;4.88;;
80201;SDS011;69521;54.454;9.928;2024-03-08T00:28:29;16.50;;;5.22;;
80201;SDS011;69521;54.454;9.928;2024-03-08T00:30:55;13.85;;;4.80;;
80201;SDS011;69521;54.454;9.928;2024-03-08T00:33:21;12.38;;;4.78;;
80201;SDS011;69521;54.454;9.928;2024-03-08T00:35:46;11.13;;;4.65;;
80201;SDS011;69521;54.454;9.928;2024-03-08T00:38:12;14.10;;;4.90;;
80201;SDS011;69521;54.454;9.928;2024-03-08T00:40:38;9.88;;;4.43;;
80201;SDS011;69521;54.454;9.928;2024-03-08T00:43:03;11.63;;;4.30;;
80201;SDS011;69521;54.454;9.928;2024-03-08T00:45:29;11.10;;;4.70;;
80201;SDS011;69521;54.454;9.928;2024-03-08T00:47:54;9.45;;;4.18;;
80201;SDS011;69521;54.454;9.928;2024-03-08T00:50:20;8.60;;;4.27;;
80201;SDS011;69521;54.454;9.928;2024-03-08T00:52:45;10.15;;;4.72;;
80201;SDS011;69521;54.454;9.928;2024-03-08T00:55:11;12.07;;;4.38;;
80201;SDS011;69521;54.454;9.928;2024-03-08T00:57:37;15.30;;;5.25;;
80201;SDS011;69521;54.454;9.928;2024-03-08T01:00:04;13.02;;;4.55;;
80201;SDS011;69521;54.454;9.928;2024-03-08T01:02:34;10.70;;;4.88;;
80201;SDS011;69521;54.454;9.928;2024-03-08T01:05:00;12.75;;;5.03;;
80201;SDS011;69521;54.454;9.928;2024-03-08T01:07:26;11.25;;;4.93;;
80201;SDS011;69521;54.454;9.928;2024-03-08T01:09:51;11.60;;;4.80;;
80201;SDS011;69521;54.454;9.928;2024-03-08T01:12:16;16.33;;;5.77;;
80201;SDS011;69521;54.454;9.928;2024-03-08T01:14:42;14.07;;;5.82;;
80201;SDS011;69521;54.454;9.928;2024-03-08T01:17:07;14.80;;;4.87;;
80201;SDS011;69521;54.454;9.928;2024-03-08T01:19:34;11.95;;;5.05;;
80201;SDS011;69521;54.454;9.928;2024-03-08T01:22:00;18.17;;;6.00;;
80201;SDS011;69521;54.454;9.928;2024-03-08T01:24:25;17.00;;;5.70;;
80201;SDS011;69521;54.454;9.928;2024-03-08T01:26:50;13.68;;;5.75;;
80201;SDS011;69521;54.454;9.928;2024-03-08T01:29:16;11.55;;;4.97;;
80201;SDS011;69521;54.454;9.928;2024-03-08T01:31:42;11.40;;;5.25;;
80201;SDS011;69521;54.454;9.928;2024-03-08T01:34:07;12.80;;;4.78;;
80201;SDS011;69521;54.454;9.928;2024-03-08T01:36:33;11.07;;;5.25;;
80201;SDS011;69521;54.454;9.928;2024-03-08T01:38:58;13.70;;;4.93;;
80201;SDS011;69521;54.454;9.928;2024-03-08T01:41:23;15.73;;;5.70;;
80201;SDS011;69521;54.454;9.928;2024-03-08T01:43:49;12.07;;;4.70;;
80201;SDS011;69521;54.454;9.928;2024-03-08T01:46:15;14.40;;;5.28;;
80201;SDS011;69521;54.454;9.928;2024-03-08T01:48:44;14.95;;;5.70;;
80201;SDS011;69521;54.454;9.928;2024-03-08T01:51:10;15.70;;;5.85;;
80201;SDS011;69521;54.454;9.928;2024-03-08T01:53:37;14.50;;;5.50;;
80201;SDS011;69521;54.454;9.928;2024-03-08T01:56:02;20.48;;;5.82;;
80201;SDS011;69521;54.454;9.928;2024-03-08T01:58:29;14.45;;;5.55;;
80201;SDS011;69521;54.454;9.928;2024-03-08T02:00:56;15.00;;;6.07;;
80201;SDS011;69521;54.454;9.928;2024-03-08T02:03:23;14.10;;;5.68;;
80201;SDS011;69521;54.454;9.928;2024-03-08T02:05:48;14.43;;;6.25;;
80201;SDS011;69521;54.454;9.928;2024-03-08T02:08:14;14.27;;;5.65;;
80201;SDS011;69521;54.454;9.928;2024-03-08T02:10:40;14.50;;;5.70;;
80201;SDS011;69521;54.454;9.928;2024-03-08T02:13:07;13.60;;;5.45;;
80201;SDS011;69521;54.454;9.928;2024-03-08T02:15:51;14.43;;;5.35;;
80201;SDS011;69521;54.454;9.928;2024-03-08T02:18:16;13.02;;;5.15;;
80201;SDS011;69521;54.454;9.928;2024-03-08T02:20:42;10.90;;;4.80;;
80201;SDS011;69521;54.454;9.928;2024-03-08T02:23:08;12.57;;;5.50;;
80201;SDS011;69521;54.454;9.928;2024-03-08T02:25:34;13.80;;;5.03;;
80201;SDS011;69521;54.454;9.928;2024-03-08T02:28:00;13.70;;;5.47;;
80201;SDS011;69521;54.454;9.928;2024-03-08T02:30:25;15.00;;;5.53;;
80201;SDS011;69521;54.454;9.928;2024-03-08T02:32:54;13.00;;;5.30;;
80201;SDS011;69521;54.454;9.928;2024-03-08T02:35:20;11.98;;;5.43;;
80201;SDS011;69521;54.454;9.928;2024-03-08T02:37:45;12.93;;;5.40;;
80201;SDS011;69521;54.454;9.928;2024-03-08T02:40:12;14.15;;;5.38;;
80201;SDS011;69521;54.454;9.928;2024-03-08T02:42:38;11.38;;;4.80;;
80201;SDS011;69521;54.454;9.928;2024-03-08T02:45:03;19.83;;;5.37;;
80201;SDS011;69521;54.454;9.928;2024-03-08T02:47:30;15.30;;;5.68;;
80201;SDS011;69521;54.454;9.928;2024-03-08T02:49:56;16.08;;;5.88;;
80201;SDS011;69521;54.454;9.928;2024-03-08T02:52:21;19.33;;;5.90;;
80201;SDS011;69521;54.454;9.928;2024-03-08T02:54:47;15.50;;;7.33;;
80201;SDS011;69521;54.454;9.928;2024-03-08T02:57:13;18.83;;;7.28;;
80201;SDS011;69521;54.454;9.928;2024-03-08T02:59:39;17.38;;;6.90;;
80201;SDS011;69521;54.454;9.928;2024-03-08T03:02:04;19.05;;;6.32;;
80201;SDS011;69521;54.454;9.928;2024-03-08T03:04:31;22.95;;;7.00;;
80201;SDS011;69521;54.454;9.928;2024-03-08T03:06:59;19.00;;;6.97;;
80201;SDS011;69521;54.454;9.928;2024-03-08T03:09:25;16.30;;;5.93;;
80201;SDS011;69521;54.454;9.928;2024-03-08T03:11:52;20.55;;;7.60;;
80201;SDS011;69521;54.454;9.928;2024-03-08T03:14:21;19.50;;;7.95;;
80201;SDS011;69521;54.454;9.928;2024-03-08T03:16:47;18.00;;;7.43;;
80201;SDS011;69521;54.454;9.928;2024-03-08T03:19:12;19.60;;;7.17;;
80201;SDS011;69521;54.454;9.928;2024-03-08T03:21:37;19.10;;;7.63;;
80201;SDS011;69521;54.454;9.928;2024-03-08T03:24:03;19.92;;;7.93;;
80201;SDS011;69521;54.454;9.928;2024-03-08T03:26:30;19.90;;;8.10;;
80201;SDS011;69521;54.454;9.928;2024-03-08T03:28:56;18.77;;;7.65;;
80201;SDS011;69521;54.454;9.928;2024-03-08T03:31:22;22.17;;;7.93;;
80201;SDS011;69521;54.454;9.928;2024-03-08T03:33:49;23.40;;;8.70;;
80201;SDS011;69521;54.454;9.928;2024-03-08T03:36:16;24.27;;;10.13;;
80201;SDS011;69521;54.454;9.928;2024-03-08T03:38:42;31.45;;;10.02;;
80201;SDS011;69521;54.454;9.928;2024-03-08T03:41:08;30.30;;;9.70;;
80201;SDS011;69521;54.454;9.928;2024-03-08T03:43:35;28.00;;;10.63;;
80201;SDS011;69521;54.454;9.928;2024-03-08T03:46:05;28.77;;;10.60;;
80201;SDS011;69521;54.454;9.928;2024-03-08T03:48:32;36.97;;;11.77;;
80201;SDS011;69521;54.454;9.928;2024-03-08T03:50:57;37.80;;;12.93;;
80201;SDS011;69521;54.454;9.928;2024-03-08T03:53:22;42.20;;;14.57;;
80201;SDS011;69521;54.454;9.928;2024-03-08T03:55:48;35.92;;;14.60;;
80201;SDS011;69521;54.454;9.928;2024-03-08T03:58:13;35.00;;;12.70;;
80201;SDS011;69521;54.454;9.928;2024-03-08T04:00:39;36.65;;;13.02;;
80201;SDS011;69521;54.454;9.928;2024-03-08T04:03:04;35.97;;;11.13;;
80201;SDS011;69521;54.454;9.928;2024-03-08T04:05:30;24.23;;;11.30;;
80201;SDS011;69521;54.454;9.928;2024-03-08T04:07:55;32.97;;;12.55;;
80201;SDS011;69521;54.454;9.928;2024-03-08T04:10:21;25.83;;;11.10;;
80201;SDS011;69521;54.454;9.928;2024-03-08T04:12:47;26.42;;;11.82;;
80201;SDS011;69521;54.454;9.928;2024-03-08T04:15:12;32.22;;;13.65;;
80201;SDS011;69521;54.454;9.928;2024-03-08T04:17:38;30.95;;;12.48;;
80201;SDS011;69521;54.454;9.928;2024-03-08T04:20:04;30.63;;;11.85;;
80201;SDS011;69521;54.454;9.928;2024-03-08T04:22:37;24.38;;;10.40;;
80201;SDS011;69521;54.454;9.928;2024-03-08T04:27:29;21.77;;;10.95;;
80201;SDS011;69521;54.454;9.928;2024-03-08T04:29:54;26.80;;;12.40;;
80201;SDS011;69521;54.454;9.928;2024-03-08T04:32:20;22.20;;;11.47;;
80201;SDS011;69521;54.454;9.928;2024-03-08T04:34:45;28.15;;;11.80;;
80201;SDS011;69521;54.454;9.928;2024-03-08T04:37:10;25.23;;;12.53;;
80201;SDS011;69521;54.454;9.928;2024-03-08T04:39:38;30.02;;;12.80;;
80201;SDS011;69521;54.454;9.928;2024-03-08T04:42:03;26.67;;;12.13;;
80201;SDS011;69521;54.454;9.928;2024-03-08T04:44:34;29.08;;;13.30;;
80201;SDS011;69521;54.454;9.928;2024-03-08T04:47:00;31.67;;;12.85;;
80201;SDS011;69521;54.454;9.928;2024-03-08T04:49:26;28.15;;;13.02;;
80201;SDS011;69521;54.454;9.928;2024-03-08T04:51:52;24.02;;;13.10;;
80201;SDS011;69521;54.454;9.928;2024-03-08T04:54:18;23.90;;;10.97;;
80201;SDS011;69521;54.454;9.928;2024-03-08T04:56:43;24.92;;;12.50;;
80201;SDS011;69521;54.454;9.928;2024-03-08T04:59:09;28.03;;;12.73;;
80201;SDS011;69521;54.454;9.928;2024-03-08T05:01:34;25.07;;;12.07;;
80201;SDS011;69521;54.454;9.928;2024-03-08T05:04:03;24.92;;;11.65;;
80201;SDS011;69521;54.454;9.928;2024-03-08T05:06:28;32.78;;;13.45;;
80201;SDS011;69521;54.454;9.928;2024-03-08T05:08:55;26.30;;;11.55;;
80201;SDS011;69521;54.454;9.928;2024-03-08T05:11:20;24.15;;;11.70;;
80201;SDS011;69521;54.454;9.928;2024-03-08T05:13:46;19.55;;;10.82;;
80201;SDS011;69521;54.454;9.928;2024-03-08T05:16:11;22.23;;;10.00;;
80201;SDS011;69521;54.454;9.928;2024-03-08T05:18:36;19.02;;;9.95;;
80201;SDS011;69521;54.454;9.928;2024-03-08T05:21:02;22.85;;;9.77;;
80201;SDS011;69521;54.454;9.928;2024-03-08T05:23:29;24.85;;;10.60;;
80201;SDS011;69521;54.454;9.928;2024-03-08T05:25:54;23.42;;;11.02;;
80201;SDS011;69521;54.454;9.928;2024-03-08T05:28:20;23.20;;;10.50;;
80201;SDS011;69521;54.454;9.928;2024-03-08T05:30:46;24.55;;;11.27;;
80201;SDS011;69521;54.454;9.928;2024-03-08T05:33:11;22.50;;;10.90;;
80201;SDS011;69521;54.454;9.928;2024-03-08T05:35:39;26.67;;;11.75;;
80201;SDS011;69521;54.454;9.928;2024-03-08T05:38:05;23.10;;;10.30;;
80201;SDS011;69521;54.454;9.928;2024-03-08T05:40:30;27.63;;;11.32;;
80201;SDS011;69521;54.454;9.928;2024-03-08T05:42:57;23.55;;;10.82;;
80201;SDS011;69521;54.454;9.928;2024-03-08T05:45:24;25.52;;;9.93;;
80201;SDS011;69521;54.454;9.928;2024-03-08T05:47:50;26.13;;;11.18;;
80201;SDS011;69521;54.454;9.928;2024-03-08T05:50:16;22.25;;;10.90;;
80201;SDS011;69521;54.454;9.928;2024-03-08T05:52:42;21.85;;;10.35;;
80201;SDS011;69521;54.454;9.928;2024-03-08T05:55:08;21.67;;;10.45;;
80201;SDS011;69521;54.454;9.928;2024-03-08T05:57:35;22.75;;;9.60;;
80201;SDS011;69521;54.454;9.928;2024-03-08T06:00:03;23.42;;;10.82;;
80201;SDS011;69521;54.454;9.928;2024-03-08T06:02:29;27.50;;;11.40;;
80201;SDS011;69521;54.454;9.928;2024-03-08T06:04:54;21.67;;;10.35;;
80201;SDS011;69521;54.454;9.928;2024-03-08T06:07:19;21.17;;;10.07;;
80201;SDS011;69521;54.454;9.928;2024-03-08T06:09:45;24.50;;;10.70;;
80201;SDS011;69521;54.454;9.928;2024-03-08T06:12:11;24.83;;;10.23;;
80201;SDS011;69521;54.454;9.928;2024-03-08T06:14:37;23.60;;;10.80;;
80201;SDS011;69521;54.454;9.928;2024-03-08T06:17:02;21.33;;;9.55;;
80201;SDS011;69521;54.454;9.928;2024-03-08T06:19:30;21.65;;;10.27;;
80201;SDS011;69521;54.454;9.928;2024-03-08T06:21:55;21.10;;;10.40;;
80201;SDS011;69521;54.454;9.928;2024-03-08T06:24:20;23.23;;;11.02;;
80201;SDS011;69521;54.454;9.928;2024-03-08T06:26:46;22.80;;;10.82;;
80201;SDS011;69521;54.454;9.928;2024-03-08T06:29:11;24.10;;;10.80;;
80201;SDS011;69521;54.454;9.928;2024-03-08T06:31:37;26.23;;;10.85;;
80201;SDS011;69521;54.454;9.928;2024-03-08T06:34:04;25.17;;;10.98;;
80201;SDS011;69521;54.454;9.928;2024-03-08T06:36:32;20.77;;;9.98;;
80201;SDS011;69521;54.454;9.928;2024-03-08T06:38:58;23.25;;;10.50;;
80201;SDS011;69521;54.454;9.928;2024-03-08T06:41:23;22.97;;;10.87;;
80201;SDS011;69521;54.454;9.928;2024-03-08T06:43:49;23.95;;;11.50;;
80201;SDS011;69521;54.454;9.928;2024-03-08T06:46:16;27.80;;;12.57;;
80201;SDS011;69521;54.454;9.928;2024-03-08T06:48:42;23.95;;;11.48;;
80201;SDS011;69521;54.454;9.928;2024-03-08T06:51:08;26.77;;;12.45;;
80201;SDS011;69521;54.454;9.928;2024-03-08T06:53:35;26.15;;;12.95;;
80201;SDS011;69521;54.454;9.928;2024-03-08T06:56:01;23.50;;;10.93;;
80201;SDS011;69521;54.454;9.928;2024-03-08T06:58:27;28.90;;;11.25;;
80201;SDS011;69521;54.454;9.928;2024-03-08T07:00:53;28.85;;;11.85;;
80201;SDS011;69521;54.454;9.928;2024-03-08T07:03:18;22.45;;;10.88;;
80201;SDS011;69521;54.454;9.928;2024-03-08T07:05:44;25.00;;;11.30;;
80201;SDS011;69521;54.454;9.928;2024-03-08T07:08:09;24.35;;;10.55;;
80201;SDS011;69521;54.454;9.928;2024-03-08T07:10:35;22.33;;;10.23;;
80201;SDS011;69521;54.454;9.928;2024-03-08T07:13:02;20.80;;;11.07;;
80201;SDS011;69521;54.454;9.928;2024-03-08T07:15:27;27.27;;;11.45;;
80201;SDS011;69521;54.454;9.928;2024-03-08T07:17:53;27.25;;;11.52;;
80201;SDS011;69521;54.454;9.928;2024-03-08T07:20:19;26.60;;;9.75;;
80201;SDS011;69521;54.454;9.928;2024-03-08T07:22:45;18.05;;;9.75;;
80201;SDS011;69521;54.454;9.928;2024-03-08T07:25:17;26.58;;;11.65;;
80201;SDS011;69521;54.454;9.928;2024-03-08T07:27:49;19.90;;;10.15;;
80201;SDS011;69521;54.454;9.928;2024-03-08T07:30:15;20.17;;;10.30;;
80201;SDS011;69521;54.454;9.928;2024-03-08T07:32:59;21.35;;;9.98;;
80201;SDS011;69521;54.454;9.928;2024-03-08T07:35:27;19.20;;;8.65;;
80201;SDS011;69521;54.454;9.928;2024-03-08T07:37:52;17.23;;;8.48;;
80201;SDS011;69521;54.454;9.928;2024-03-08T07:40:20;17.40;;;8.05;;
80201;SDS011;69521;54.454;9.928;2024-03-08T07:42:45;20.30;;;9.98;;
80201;SDS011;69521;54.454;9.928;2024-03-08T07:45:11;19.30;;;9.90;;
80201;SDS011;69521;54.454;9.928;2024-03-08T07:47:37;19.15;;;9.32;;
80201;SDS011;69521;54.454;9.928;2024-03-08T07:50:03;23.35;;;10.60;;
80201;SDS011;69521;54.454;9.928;2024-03-08T07:52:29;21.40;;;10.95;;
80201;SDS011;69521;54.454;9.928;2024-03-08T07:54:54;23.57;;;10.63;;
80201;SDS011;69521;54.454;9.928;2024-03-08T07:57:19;20.60;;;9.68;;
80201;SDS011;69521;54.454;9.928;2024-03-08T07:59:45;21.17;;;9.88;;
80201;SDS011;69521;54.454;9.928;2024-03-08T08:02:10;20.27;;;9.45;;
80201;SDS011;69521;54.454;9.928;2024-03-08T08:04:36;19.20;;;9.83;;
80201;SDS011;69521;54.454;9.928;2024-03-08T08:07:01;22.43;;;10.23;;
80201;SDS011;69521;54.454;9.928;2024-03-08T08:09:26;17.60;;;9.93;;
80201;SDS011;69521;54.454;9.928;2024-03-08T08:11:59;17.95;;;9.65;;
80201;SDS011;69521;54.454;9.928;2024-03-08T08:14:26;17.85;;;9.68;;
80201;SDS011;69521;54.454;9.928;2024-03-08T08:16:52;19.07;;;10.37;;
80201;SDS011;69521;54.454;9.928;2024-03-08T08:19:18;20.35;;;10.23;;
80201;SDS011;69521;54.454;9.928;2024-03-08T08:21:43;18.02;;;9.90;;
80201;SDS011;69521;54.454;9.928;2024-03-08T08:24:09;21.45;;;10.07;;
80201;SDS011;69521;54.454;9.928;2024-03-08T08:26:35;19.77;;;10.02;;
80201;SDS011;69521;54.454;9.928;2024-03-08T08:29:01;19.05;;;9.88;;
80201;SDS011;69521;54.454;9.928;2024-03-08T08:31:26;18.30;;;9.40;;
80201;SDS011;69521;54.454;9.928;2024-03-08T08:33:52;17.98;;;9.05;;
80201;SDS011;69521;54.454;9.928;2024-03-08T08:36:23;15.85;;;9.40;;
80201;SDS011;69521;54.454;9.928;2024-03-08T08:38:51;18.83;;;8.98;;
80201;SDS011;69521;54.454;9.928;2024-03-08T08:41:20;16.35;;;8.30;;
80201;SDS011;69521;54.454;9.928;2024-03-08T08:43:46;18.70;;;9.30;;
80201;SDS011;69521;54.454;9.928;2024-03-08T08:46:12;16.05;;;9.23;;
80201;SDS011;69521;54.454;9.928;2024-03-08T08:48:38;19.08;;;8.48;;
80201;SDS011;69521;54.454;9.928;2024-03-08T08:51:06;18.92;;;8.63;;
80201;SDS011;69521;54.454;9.928;2024-03-08T08:53:37;15.65;;;8.65;;
80201;SDS011;69521;54.454;9.928;2024-03-08T08:56:11;19.00;;;8.95;;
80201;SDS011;69521;54.454;9.928;2024-03-08T08:58:40;21.02;;;9.20;;
80201;SDS011;69521;54.454;9.928;2024-03-08T09:01:08;16.15;;;8.75;;
80201;SDS011;69521;54.454;9.928;2024-03-08T09:03:37;15.82;;;8.25;;
80201;SDS011;69521;54.454;9.928;2024-03-08T09:06:05;14.80;;;7.55;;
80201;SDS011;69521;54.454;9.928;2024-03-08T09:08:34;16.30;;;8.88;;
80201;SDS011;69521;54.454;9.928;2024-03-08T09:11:00;21.40;;;9.50;;
80201;SDS011;69521;54.454;9.928;2024-03-08T09:13:26;18.08;;;9.27;;
80201;SDS011;69521;54.454;9.928;2024-03-08T09:15:51;17.10;;;8.45;;
80201;SDS011;69521;54.454;9.928;2024-03-08T09:18:17;15.27;;;8.20;;
80201;SDS011;69521;54.454;9.928;2024-03-08T09:20:44;16.95;;;8.98;;
80201;SDS011;69521;54.454;9.928;2024-03-08T09:23:10;15.82;;;8.32;;
80201;SDS011;69521;54.454;9.928;2024-03-08T09:25:35;16.05;;;8.02;;
80201;SDS011;69521;54.454;9.928;2024-03-08T09:28:00;16.23;;;8.50;;
80201;SDS011;69521;54.454;9.928;2024-03-08T09:30:26;16.13;;;9.07;;
80201;SDS011;69521;54.454;9.928;2024-03-08T09:32:51;14.50;;;8.45;;
80201;SDS011;69521;54.454;9.928;2024-03-08T09:35:16;15.68;;;8.73;;
80201;SDS011;69521;54.454;9.928;2024-03-08T09:37:42;17.30;;;8.68;;
80201;SDS011;69521;54.454;9.928;2024-03-08T09:40:07;16.83;;;8.98;;
80201;SDS011;69521;54.454;9.928;2024-03-08T09:42:40;15.15;;;7.90;;
80201;SDS011;69521;54.454;9.928;2024-03-08T09:45:08;16.95;;;8.63;;
80201;SDS011;69521;54.454;9.928;2024-03-08T09:47:43;14.73;;;8.30;;
80201;SDS011;69521;54.454;9.928;2024-03-08T09:50:10;18.45;;;8.93;;
80201;SDS011;69521;54.454;9.928;2024-03-08T09:52:40;14.75;;;9.02;;
80201;SDS011;69521;54.454;9.928;2024-03-08T09:55:06;20.95;;;9.60;;
80201;SDS011;69521;54.454;9.928;2024-03-08T09:57:36;20.42;;;11.02;;
80201;SDS011;69521;54.454;9.928;2024-03-08T10:00:02;18.30;;;9.75;;
80201;SDS011;69521;54.454;9.928;2024-03-08T10:02:36;20.55;;;10.90;;
80201;SDS011;69521;54.454;9.928;2024-03-08T10:05:02;17.50;;;9.60;;
80201;SDS011;69521;54.454;9.928;2024-03-08T10:07:28;17.60;;;8.98;;
80201;SDS011;69521;54.454;9.928;2024-03-08T10:09:54;17.95;;;10.48;;
80201;SDS011;69521;54.454;9.928;2024-03-08T10:12:20;17.02;;;9.52;;
80201;SDS011;69521;54.454;9.928;2024-03-08T10:14:45;17.17;;;10.23;;
80201;SDS011;69521;54.454;9.928;2024-03-08T10:17:11;21.70;;;10.13;;
80201;SDS011;69521;54.454;9.928;2024-03-08T10:19:37;19.58;;;9.70;;
80201;SDS011;69521;54.454;9.928;2024-03-08T10:22:03;17.77;;;9.43;;
80201;SDS011;69521;54.454;9.928;2024-03-08T10:24:29;19.45;;;9.27;;
80201;SDS011;69521;54.454;9.928;2024-03-08T10:26:58;14.63;;;9.02;;
80201;SDS011;69521;54.454;9.928;2024-03-08T10:29:25;16.42;;;9.10;;
80201;SDS011;69521;54.454;9.928;2024-03-08T10:31:50;15.97;;;8.93;;
80201;SDS011;69521;54.454;9.928;2024-03-08T10:34:16;16.85;;;9.90;;
80201;SDS011;69521;54.454;9.928;2024-03-08T10:36:41;14.65;;;8.98;;
80201;SDS011;69521;54.454;9.928;2024-03-08T10:39:10;22.30;;;9.80;;
80201;SDS011;69521;54.454;9.928;2024-03-08T10:41:45;16.98;;;9.40;;
80201;SDS011;69521;54.454;9.928;2024-03-08T10:47:02;17.00;;;9.88;;
80201;SDS011;69521;54.454;9.928;2024-03-08T10:49:41;18.00;;;10.63;;
80201;SDS011;69521;54.454;9.928;2024-03-08T10:52:16;17.25;;;10.27;;
80201;SDS011;69521;54.454;9.928;2024-03-08T10:54:42;16.58;;;9.98;;
80201;SDS011;69521;54.454;9.928;2024-03-08T10:57:08;17.40;;;10.13;;
80201;SDS011;69521;54.454;9.928;2024-03-08T10:59:35;16.38;;;9.38;;
80201;SDS011;69521;54.454;9.928;2024-03-08T11:02:01;17.75;;;9.50;;
80201;SDS011;69521;54.454;9.928;2024-03-08T11:04:26;17.17;;;10.20;;
80201;SDS011;69521;54.454;9.928;2024-03-08T11:06:54;18.05;;;10.32;;
80201;SDS011;69521;54.454;9.928;2024-03-08T11:09:28;19.65;;;11.18;;
80201;SDS011;69521;54.454;9.928;2024-03-08T11:14:49;19.10;;;10.63;;
80201;SDS011;69521;54.454;9.928;2024-03-08T11:19:53;18.33;;;11.23;;
80201;SDS011;69521;54.454;9.928;2024-03-08T11:22:31;17.23;;;10.13;;
80201;SDS011;69521;54.454;9.928;2024-03-08T11:24:58;16.52;;;10.52;;
80201;SDS011;69521;54.454;9.928;2024-03-08T11:27:30;19.02;;;10.63;;
80201;SDS011;69521;54.454;9.928;2024-03-08T11:30:00;18.85;;;10.18;;
80201;SDS011;69521;54.454;9.928;2024-03-08T11:32:48;27.35;;;11.77;;
80201;SDS011;69521;54.454;9.928;2024-03-08T11:35:20;19.33;;;12.32;;
80201;SDS011;69521;54.454;9.928;2024-03-08T11:37:48;21.15;;;10.75;;
80201;SDS011;69521;54.454;9.928;2024-03-08T11:40:14;20.58;;;12.60;;
80201;SDS011;69521;54.454;9.928;2024-03-08T11:42:45;19.80;;;11.10;;
80201;SDS011;69521;54.454;9.928;2024-03-08T11:45:14;16.75;;;10.02;;
80201;SDS011;69521;54.454;9.928;2024-03-08T11:47:42;19.25;;;12.27;;
80201;SDS011;69521;54.454;9.928;2024-03-08T11:50:13;18.17;;;10.85;;
80201;SDS011;69521;54.454;9.928;2024-03-08T11:52:39;16.20;;;10.35;;
80201;SDS011;69521;54.454;9.928;2024-03-08T11:55:05;16.92;;;10.48;;
80201;SDS011;69521;54.454;9.928;2024-03-08T11:57:31;16.65;;;10.40;;
80201;SDS011;69521;54.454;9.928;2024-03-08T11:59:57;15.27;;;9.85;;
80201;SDS011;69521;54.454;9.928;2024-03-08T12:02:35;19.85;;;11.23;;
80201;SDS011;69521;54.454;9.928;2024-03-08T12:05:05;16.45;;;10.00;;
80201;SDS011;69521;54.454;9.928;2024-03-08T12:07:31;18.00;;;10.38;;
80201;SDS011;69521;54.454;9.928;2024-03-08T12:10:16;17.70;;;9.95;;
80201;SDS011;69521;54.454;9.928;2024-03-08T12:12:51;18.80;;;10.15;;
80201;SDS011;69521;54.454;9.928;2024-03-08T12:15:17;16.77;;;9.88;;
80201;SDS011;69521;54.454;9.928;2024-03-08T12:17:44;16.92;;;9.77;;
80201;SDS011;69521;54.454;9.928;2024-03-08T12:22:41;15.93;;;9.80;;
80201;SDS011;69521;54.454;9.928;2024-03-08T12:25:08;17.92;;;10.07;;
80201;SDS011;69521;54.454;9.928;2024-03-08T12:27:35;15.80;;;9.70;;
80201;SDS011;69521;54.454;9.928;2024-03-08T12:30:22;17.38;;;10.15;;
80201;SDS011;69521;54.454;9.928;2024-03-08T12:32:57;17.67;;;10.68;;
80201;SDS011;69521;54.454;9.928;2024-03-08T12:35:24;19.70;;;10.85;;
80201;SDS011;69521;54.454;9.928;2024-03-08T12:37:52;20.83;;;11.25;;
80201;SDS011;69521;54.454;9.928;2024-03-08T12:40:19;19.52;;;10.50;;
80201;SDS011;69521;54.454;9.928;2024-03-08T12:42:51;20.13;;;10.88;;
80201;SDS011;69521;54.454;9.928;2024-03-08T12:45:17;18.13;;;10.30;;
80201;SDS011;69521;54.454;9.928;2024-03-08T12:47:42;19.17;;;10.53;;
80201;SDS011;69521;54.454;9.928;2024-03-08T12:50:08;18.70;;;10.20;;
80201;SDS011;69521;54.454;9.928;2024-03-08T12:52:35;20.45;;;10.63;;
80201;SDS011;69521;54.454;9.928;2024-03-08T12:55:01;18.05;;;10.40;;
80201;SDS011;69521;54.454;9.928;2024-03-08T12:57:31;19.85;;;10.68;;
80201;SDS011;69521;54.454;9.928;2024-03-08T12:59:59;20.02;;;10.57;;
80201;SDS011;69521;54.454;9.928;2024-03-08T13:02:24;19.38;;;10.90;;
80201;SDS011;69521;54.454;9.928;2024-03-08T13:04:51;20.48;;;10.90;;
80201;SDS011;69521;54.454;9.928;2024-03-08T13:07:22;17.65;;;10.48;;
80201;SDS011;69521;54.454;9.928;2024-03-08T13:09:54;18.60;;;10.27;;
80201;SDS011;69521;54.454;9.928;2024-03-08T13:12:20;19.30;;;10.50;;
80201;SDS011;69521;54.454;9.928;2024-03-08T13:14:47;17.75;;;10.18;;
80201;SDS011;69521;54.454;9.928;2024-03-08T13:17:13;20.08;;;10.00;;
80201;SDS011;69521;54.454;9.928;2024-03-08T13:19:39;18.40;;;10.27;;
80201;SDS011;69521;54.454;9.928;2024-03-08T13:22:05;20.83;;;10.05;;
80201;SDS011;69521;54.454;9.928;2024-03-08T13:24:30;22.25;;;10.75;;
80201;SDS011;69521;54.454;9.928;2024-03-08T13:26:56;19.88;;;11.82;;
80201;SDS011;69521;54.454;9.928;2024-03-08T13:29:22;19.48;;;10.65;;
80201;SDS011;69521;54.454;9.928;2024-03-08T13:31:48;18.75;;;9.73;;
80201;SDS011;69521;54.454;9.928;2024-03-08T13:34:16;19.08;;;10.45;;
80201;SDS011;69521;54.454;9.928;2024-03-08T13:36:42;18.98;;;10.70;;
80201;SDS011;69521;54.454;9.928;2024-03-08T13:39:09;18.85;;;11.68;;
80201;SDS011;69521;54.454;9.928;2024-03-08T13:41:40;22.25;;;12.15;;
80201;SDS011;69521;54.454;9.928;2024-03-08T13:44:09;19.05;;;10.57;;
80201;SDS011;69521;54.454;9.928;2024-03-08T13:46:35;20.73;;;10.32;;
80201;SDS011;69521;54.454;9.928;2024-03-08T13:49:03;17.67;;;10.32;;
80201;SDS011;69521;54.454;9.928;2024-03-08T13:51:34;20.73;;;10.15;;
80201;SDS011;69521;54.454;9.928;2024-03-08T13:54:00;18.10;;;10.65;;
80201;SDS011;69521;54.454;9.928;2024-03-08T13:56:26;20.95;;;11.02;;
80201;SDS011;69521;54.454;9.928;2024-03-08T13:58:52;20.55;;;11.20;;
80201;SDS011;69521;54.454;9.928;2024-03-08T14:01:17;20.25;;;11.00;;
80201;SDS011;69521;54.454;9.928;2024-03-08T14:03:43;27.58;;;13.70;;
80201;SDS011;69521;54.454;9.928;2024-03-08T14:06:08;22.08;;;12.35;;
80201;SDS011;69521;54.454;9.928;2024-03-08T14:08:34;20.88;;;10.55;;
80201;SDS011;69521;54.454;9.928;2024-03-08T14:11:03;20.73;;;10.88;;
80201;SDS011;69521;54.454;9.928;2024-03-08T14:13:40;22.65;;;9.57;;
80201;SDS011;69521;54.454;9.928;2024-03-08T14:16:06;23.33;;;10.63;;
80201;SDS011;69521;54.454;9.928;2024-03-08T14:18:34;19.75;;;10.13;;
80201;SDS011;69521;54.454;9.928;2024-03-08T14:20:59;17.60;;;9.73;;
80201;SDS011;69521;54.454;9.928;2024-03-08T14:23:24;24.50;;;10.23;;
80201;SDS011;69521;54.454;9.928;2024-03-08T14:25:52;21.10;;;9.73;;
80201;SDS011;69521;54.454;9.928;2024-03-08T14:28:17;17.97;;;8.73;;
80201;SDS011;69521;54.454;9.928;2024-03-08T14:30:44;20.52;;;9.50;;
80201;SDS011;69521;54.454;9.928;2024-03-08T14:33:09;19.08;;;9.93;;
80201;SDS011;69521;54.454;9.928;2024-03-08T14:35:35;21.08;;;10.88;;
80201;SDS011;69521;54.454;9.928;2024-03-08T14:38:01;23.10;;;10.07;;
80201;SDS011;69521;54.454;9.928;2024-03-08T14:40:27;23.05;;;9.65;;